Time;durP1;ratioP1;P1;durP2;ratioP2;P2;SDS_P1;SDS_P2;PMS_P1;PMS_P2;Temp;Humidity;BMP_temperature;BMP_pressure;BME280_temperature;BME280_humidity;BME280_pressure;Samples;Min_cycle;Max_cycle;Signal;HPM_P1;HPM_P2
2021/10/11 05:51:40;;;;;;;14.15;8.20;;;;;;;;;;10623030;27;20478;-83
2021/10/11 05:56:41;;;;;;;15.27;9.38;;;;;;;;;;10589325;28;20024;-83
2021/10/11 06:07:20;;;;;;;6.78;5.10;;;;;;;;;;10589210;28;20024;-84
2021/10/11 06:12:21;;;;;;;;;;;;;;;;;;10586454;28;20024;-84
2021/10/11 06:17:22;;;;;;;5.88;4.70;;;;;;;;;;10586381;28;19947;-83
2021/10/11 06:22:23;;;;;;;8.02;5.00;;;;;;;;;;10587708;28;20496;-83
2021/10/11 06:27:27;;;;;;;6.07;4.53;;;;;;;;;;10586431;28;20059;-84
2021/10/11 06:32:28;;;;;;;8.32;5.63;;;;;;;;;;10590116;28;20020;-84
2021/10/11 06:43:07;;;;;;;7.43;4.90;;;;;;;;;;10588328;28;20020;-84
2021/10/11 06:48:08;;;;;;;10.05;5.28;;;;;;;;;;10587628;28;20032;-84
2021/10/11 06:53:09;;;;;;;5.85;4.50;;;;;;;;;;10586516;28;20024;-84
2021/10/11 06:58:10;;;;;;;6.97;4.45;;;;;;;;;;10589010;28;20019;-84
2021/10/11 07:03:11;;;;;;;5.82;4.30;;;;;;;;;;10563574;28;20016;-86
2021/10/11 07:08:12;;;;;;;6.68;4.05;;;;;;;;;;10593798;28;20059;-86
2021/10/11 07:13:13;;;;;;;5.85;3.92;;;;;;;;;;10592492;28;20008;-82
2021/10/11 07:18:14;;;;;;;7.97;3.60;;;;;;;;;;10577127;28;20032;-81
2021/10/11 07:23:15;;;;;;;7.47;3.78;;;;;;;;;;10566130;28;20020;-81
2021/10/11 07:28:16;;;;;;;6.70;3.15;;;;;;;;;;10558913;28;20136;-81
2021/10/11 07:33:17;;;;;;;7.28;3.30;;;;;;;;;;10559828;28;20039;-81
2021/10/11 07:38:46;;;;;;;7.00;3.30;;;;;;;;;;10557291;28;20409;-88
2021/10/11 07:43:54;;;;;;;5.47;2.72;;;;;;;;;;10551375;28;20024;-87
2021/10/11 07:49:52;;;;;;;6.55;3.15;;;;;;;;;;10621612;27;20051;-88
2021/10/11 08:12:38;;;;;;;;;;;;;;;;;;;;;
2021/10/11 08:39:03;;;;;;;6.72;2.90;;;;;;;;;;10555812;28;20048;-87
2021/10/11 08:44:22;;;;;;;5.38;2.50;;;;;;;;;;10554434;28;20509;-88
2021/10/11 09:00:40;;;;;;;6.95;3.45;;;;;;;;;;10562543;28;20086;-87
2021/10/11 09:05:48;;;;;;;7.43;2.72;;;;;;;;;;10591296;28;20130;-87
2021/10/11 09:10:51;;;;;;;8.77;2.47;;;;;;;;;;10585522;28;20039;-86
2021/10/11 09:16:02;;;;;;;6.47;3.13;;;;;;;;;;10600551;28;20393;-86
2021/10/11 09:21:03;;;;;;;7.43;3.38;;;;;;;;;;10612154;28;20051;-87
2021/10/11 09:26:21;;;;;;;8.20;2.67;;;;;;;;;;10601962;28;20032;-87
2021/10/11 09:31:59;;;;;;;7.32;4.10;;;;;;;;;;10594365;28;20051;-86
2021/10/11 09:37:05;;;;;;;7.20;3.35;;;;;;;;;;10578168;28;20058;-86
2021/10/11 09:42:10;;;;;;;8.98;2.65;;;;;;;;;;10577849;28;20035;-85
2021/10/11 09:47:14;;;;;;;6.85;2.20;;;;;;;;;;10576544;28;20044;-85
2021/10/11 09:52:15;;;;;;;8.02;3.50;;;;;;;;;;10576995;28;20035;-84
2021/10/11 09:57:17;;;;;;;6.70;3.05;;;;;;;;;;10581067;22;20036;-84
2021/10/11 10:02:22;;;;;;;5.20;3.20;;;;;;;;;;10469671;28;20041;-85
2021/10/11 10:07:24;;;;;;;6.93;2.42;;;;;;;;;;10467730;28;20043;-85
2021/10/11 10:12:25;;;;;;;6.25;3.08;;;;;;;;;;10429669;28;20116;-85
2021/10/11 10:17:30;;;;;;;7.53;2.45;;;;;;;;;;10431087;28;20042;-84
2021/10/11 10:22:31;;;;;;;6.65;2.10;;;;;;;;;;10430583;28;20216;-86
2021/10/11 10:27:39;;;;;;;11.02;4.50;;;;;;;;;;10447229;28;20060;-86
2021/10/11 10:32:53;;;;;;;9.40;3.33;;;;;;;;;;10464832;28;20037;-86
2021/10/11 10:37:55;;;;;;;7.38;2.35;;;;;;;;;;10452868;28;20043;-84
2021/10/11 10:43:09;;;;;;;6.30;2.65;;;;;;;;;;10451179;28;20095;-86
2021/10/11 10:48:26;;;;;;;6.63;2.58;;;;;;;;;;10472858;28;20065;-86
2021/10/11 10:53:29;;;;;;;10.07;4.03;;;;;;;;;;10472998;28;20117;-87
2021/10/11 10:58:39;;;;;;;7.07;2.50;;;;;;;;;;10469180;28;20068;-86
2021/10/11 11:03:40;;;;;;;9.63;2.63;;;;;;;;;;10451240;28;20103;-86
2021/10/11 11:14:42;;;;;;;7.57;2.20;;;;;;;;;;10466312;28;20017;-88
2021/10/11 11:19:43;;;;;;;9.80;2.38;;;;;;;;;;10463578;28;20040;-88
2021/10/11 11:24:50;;;;;;;8.75;3.30;;;;;;;;;;10461397;28;20053;-84
2021/10/11 11:29:56;;;;;;;6.22;1.90;;;;;;;;;;10465940;28;20052;-84
2021/10/11 11:34:57;;;;;;;6.70;1.85;;;;;;;;;;10478332;28;20210;-84
2021/10/11 11:40:05;;;;;;;7.55;2.15;;;;;;;;;;10471836;28;20044;-84
2021/10/11 11:45:06;;;;;;;4.57;1.67;;;;;;;;;;10466348;28;20041;-84
2021/10/11 11:50:23;;;;;;;11.05;3.92;;;;;;;;;;10472160;28;20051;-84
2021/10/11 11:55:24;;;;;;;6.68;2.22;;;;;;;;;;10473491;28;20056;-82
2021/10/11 12:00:26;;;;;;;7.10;2.20;;;;;;;;;;10454018;28;20486;-82
2021/10/11 12:05:27;;;;;;;9.02;2.05;;;;;;;;;;10465454;28;20048;-82
2021/10/11 12:10:28;;;;;;;4.47;1.42;;;;;;;;;;10507390;28;20037;-83
2021/10/11 12:15:31;;;;;;;4.63;1.48;;;;;;;;;;10489706;28;20044;-79
2021/10/11 12:20:42;;;;;;;7.05;1.70;;;;;;;;;;10471388;28;20131;-84
2021/10/11 12:25:43;;;;;;;4.47;1.60;;;;;;;;;;10457659;28;20037;-84
2021/10/11 12:30:46;;;;;;;3.22;1.17;;;;;;;;;;10454797;28;20037;-83
2021/10/11 12:35:59;;;;;;;5.65;2.95;;;;;;;;;;10453490;28;20029;-84
2021/10/11 12:41:07;;;;;;;6.85;2.08;;;;;;;;;;10455639;28;20119;-84
2021/10/11 12:46:09;;;;;;;2.63;1.20;;;;;;;;;;10453980;28;20107;-85
2021/10/11 12:51:10;;;;;;;6.90;2.03;;;;;;;;;;10458860;28;20045;-83
2021/10/11 12:56:15;;;;;;;6.38;1.67;;;;;;;;;;10454655;28;20582;-86
2021/10/11 13:01:16;;;;;;;5.35;1.45;;;;;;;;;;10466558;28;20045;-86
2021/10/11 13:06:21;;;;;;;4.68;1.02;;;;;;;;;;10454628;28;20141;-87
2021/10/11 13:11:22;;;;;;;4.32;1.70;;;;;;;;;;10450970;28;20052;-87
2021/10/11 13:16:24;;;;;;;5.70;1.95;;;;;;;;;;10466936;28;20053;-87
2021/10/11 13:21:29;;;;;;;6.50;3.00;;;;;;;;;;10453502;28;20029;-85
2021/10/11 13:26:34;;;;;;;6.35;2.10;;;;;;;;;;10454280;28;20036;-86
2021/10/11 13:32:14;;;;;;;4.38;2.03;;;;;;;;;;10471028;28;20450;-85
2021/10/11 16:00:57;;;;;;;4.50;1.70;;;;;;;;;;10512119;22;20056;-86
2021/10/11 16:06:01;;;;;;;5.00;1.83;;;;;;;;;;10497495;28;20040;-85
2021/10/11 16:11:02;;;;;;;4.72;1.63;;;;;;;;;;10515415;28;20032;-87
2021/10/11 16:16:04;;;;;;;4.28;1.17;;;;;;;;;;10496146;28;20063;-85
2021/10/11 16:21:09;;;;;;;5.05;1.45;;;;;;;;;;10491978;28;20398;-89
2021/10/11 18:42:10;;;;;;;4.07;2.15;;;;;;;;;;10336808;28;20420;-90
2021/10/11 19:04:44;;;;;;;7.28;2.13;;;;;;;;;;10340956;28;20057;-90
2021/10/11 19:16:17;;;;;;;3.78;1.80;;;;;;;;;;10340847;28;20039;-89
2021/10/11 20:13:31;;;;;;;55.97;48.80;;;;;;;;;;10298369;28;20034;-89
